sensor_id;sensor_type;location;lat;lon;timestamp;pressure;altitude;pressure_sealevel;temperature;humidity
21300;BME280;10809;49.476;11.016;2022-08-19T00:01:44;97640.13;;;23.31;52.85
21300;BME280;10809;49.476;11.016;2022-08-19T00:04:16;97631.34;;;23.29;52.87
21300;BME280;10809;49.476;11.016;2022-08-19T00:06:51;97626.28;;;23.26;52.69
21300;BME280;10809;49.476;11.016;2022-08-19T00:09:23;97628.34;;;23.24;52.97
21300;BME280;10809;49.476;11.016;2022-08-19T00:11:55;97618.56;;;23.23;52.98
21300;BME280;10809;49.476;11.016;2022-08-19T00:14:28;97624.13;;;23.21;52.97
21300;BME280;10809;49.476;11.016;2022-08-19T00:17:02;97616.22;;;23.20;53.10
21300;BME280;10809;49.476;11.016;2022-08-19T00:19:33;97619.94;;;23.19;53.26
21300;BME280;10809;49.476;11.016;2022-08-19T00:22:06;97625.53;;;23.17;53.25
21300;BME280;10809;49.476;11.016;2022-08-19T00:24:38;97616.75;;;23.15;53.28
21300;BME280;10809;49.476;11.016;2022-08-19T00:27:11;97609.00;;;23.12;53.61
21300;BME280;10809;49.476;11.016;2022-08-19T00:29:42;97610.03;;;23.11;53.32
21300;BME280;10809;49.476;11.016;2022-08-19T00:32:12;97613.09;;;23.08;53.53
21300;BME280;10809;49.476;11.016;2022-08-19T00:34:42;97605.38;;;23.05;53.62
21300;BME280;10809;49.476;11.016;2022-08-19T00:37:13;97610.94;;;23.03;53.39
21300;BME280;10809;49.476;11.016;2022-08-19T00:39:43;97614.00;;;23.00;53.64
21300;BME280;10809;49.476;11.016;2022-08-19T00:42:17;97615.00;;;22.99;53.20
21300;BME280;10809;49.476;11.016;2022-08-19T00:44:49;97617.03;;;22.97;53.71
21300;BME280;10809;49.476;11.016;2022-08-19T00:47:23;97619.91;;;22.96;53.70
21300;BME280;10809;49.476;11.016;2022-08-19T00:49:56;97623.78;;;22.93;53.84
21300;BME280;10809;49.476;11.016;2022-08-19T00:52:30;97625.84;;;22.91;54.02
21300;BME280;10809;49.476;11.016;2022-08-19T00:55:05;97633.09;;;22.91;53.69
21300;BME280;10809;49.476;11.016;2022-08-19T00:57:40;97646.59;;;22.91;54.36
21300;BME280;10809;49.476;11.016;2022-08-19T01:00:15;97643.91;;;22.91;53.84
21300;BME280;10809;49.476;11.016;2022-08-19T01:02:49;97643.06;;;22.90;53.99
21300;BME280;10809;49.476;11.016;2022-08-19T01:05:23;97637.84;;;22.89;54.08
21300;BME280;10809;49.476;11.016;2022-08-19T01:08:02;97642.25;;;22.90;53.85
21300;BME280;10809;49.476;11.016;2022-08-19T01:10:40;97637.84;;;22.89;54.15
21300;BME280;10809;49.476;11.016;2022-08-19T01:13:13;97639.53;;;22.90;54.61
21300;BME280;10809;49.476;11.016;2022-08-19T01:15:46;97634.31;;;22.88;54.74
21300;BME280;10809;49.476;11.016;2022-08-19T01:18:23;97648.63;;;22.89;54.49
21300;BME280;10809;49.476;11.016;2022-08-19T01:20:56;97643.22;;;22.89;54.46
21300;BME280;10809;49.476;11.016;2022-08-19T01:23:28;97651.50;;;22.87;54.48
21300;BME280;10809;49.476;11.016;2022-08-19T01:26:16;97652.38;;;22.88;54.71
21300;BME280;10809;49.476;11.016;2022-08-19T01:28:49;97649.84;;;22.86;54.64
21300;BME280;10809;49.476;11.016;2022-08-19T01:31:23;97650.69;;;22.87;54.58
21300;BME280;10809;49.476;11.016;2022-08-19T01:33:57;97642.78;;;22.85;54.58
21300;BME280;10809;49.476;11.016;2022-08-19T01:36:31;97641.91;;;22.85;54.63
21300;BME280;10809;49.476;11.016;2022-08-19T01:39:08;97651.69;;;22.86;54.51
21300;BME280;10809;49.476;11.016;2022-08-19T01:41:42;97652.72;;;22.85;54.82
21300;BME280;10809;49.476;11.016;2022-08-19T01:44:12;97662.66;;;22.84;54.70
21300;BME280;10809;49.476;11.016;2022-08-19T01:46:43;97656.44;;;22.84;54.47
21300;BME280;10809;49.476;11.016;2022-08-19T01:49:19;97657.44;;;22.83;54.59
21300;BME280;10809;49.476;11.016;2022-08-19T01:51:50;97661.00;;;22.83;54.84
21300;BME280;10809;49.476;11.016;2022-08-19T01:54:22;97665.72;;;22.81;55.12
21300;BME280;10809;49.476;11.016;2022-08-19T01:57:00;97674.69;;;22.82;54.76
21300;BME280;10809;49.476;11.016;2022-08-19T01:59:39;97681.09;;;22.81;54.88
21300;BME280;10809;49.476;11.016;2022-08-19T02:02:13;97675.03;;;22.79;54.76
21300;BME280;10809;49.476;11.016;2022-08-19T02:04:44;97660.84;;;22.77;55.01
21300;BME280;10809;49.476;11.016;2022-08-19T02:07:19;97662.06;;;22.74;54.88
21300;BME280;10809;49.476;11.016;2022-08-19T02:09:50;97657.69;;;22.73;55.39
21300;BME280;10809;49.476;11.016;2022-08-19T02:12:21;97657.00;;;22.71;55.22
21300;BME280;10809;49.476;11.016;2022-08-19T02:14:51;97658.88;;;22.71;55.44
21300;BME280;10809;49.476;11.016;2022-08-19T02:17:22;97669.84;;;22.69;55.32
21300;BME280;10809;49.476;11.016;2022-08-19T02:19:58;97678.97;;;22.68;55.18
21300;BME280;10809;49.476;11.016;2022-08-19T02:22:30;97688.09;;;22.67;55.49
21300;BME280;10809;49.476;11.016;2022-08-19T02:25:04;97698.03;;;22.67;55.75
21300;BME280;10809;49.476;11.016;2022-08-19T02:27:35;97705.28;;;22.66;55.54
21300;BME280;10809;49.476;11.016;2022-08-19T02:30:06;97701.72;;;22.66;55.70
21300;BME280;10809;49.476;11.016;2022-08-19T02:32:40;97705.47;;;22.65;55.65
21300;BME280;10809;49.476;11.016;2022-08-19T02:35:15;97700.06;;;22.65;55.45
21300;BME280;10809;49.476;11.016;2022-08-19T02:37:45;97699.22;;;22.64;55.89
21300;BME280;10809;49.476;11.016;2022-08-19T02:40:35;97699.22;;;22.64;55.76
21300;BME280;10809;49.476;11.016;2022-08-19T02:43:07;97708.34;;;22.63;55.92
21300;BME280;10809;49.476;11.016;2022-08-19T02:45:38;97720.97;;;22.63;55.89
21300;BME280;10809;49.476;11.016;2022-08-19T02:48:11;97732.78;;;22.62;55.96
21300;BME280;10809;49.476;11.016;2022-08-19T02:50:42;97720.31;;;22.61;56.06
21300;BME280;10809;49.476;11.016;2022-08-19T02:53:15;97716.59;;;22.62;55.92
21300;BME280;10809;49.476;11.016;2022-08-19T02:55:46;97711.22;;;22.62;55.93
21300;BME280;10809;49.476;11.016;2022-08-19T02:58:17;97707.66;;;22.61;56.07
21300;BME280;10809;49.476;11.016;2022-08-19T03:00:50;97714.94;;;22.61;55.67
21300;BME280;10809;49.476;11.016;2022-08-19T03:03:24;97713.22;;;22.60;56.08
21300;BME280;10809;49.476;11.016;2022-08-19T03:06:10;97708.84;;;22.59;55.73
21300;BME280;10809;49.476;11.016;2022-08-19T03:08:45;97712.41;;;22.59;56.09
21300;BME280;10809;49.476;11.016;2022-08-19T03:11:19;97705.31;;;22.58;56.26
21300;BME280;10809;49.476;11.016;2022-08-19T03:13:53;97707.19;;;22.58;56.14
21300;BME280;10809;49.476;11.016;2022-08-19T03:16:29;97699.25;;;22.56;55.94
21300;BME280;10809;49.476;11.016;2022-08-19T03:19:01;97693.00;;;22.56;56.43
21300;BME280;10809;49.476;11.016;2022-08-19T03:21:33;97679.53;;;22.56;56.17
21300;BME280;10809;49.476;11.016;2022-08-19T03:24:08;97688.66;;;22.55;56.37
21300;BME280;10809;49.476;11.016;2022-08-19T03:26:40;97679.88;;;22.53;56.33
21300;BME280;10809;49.476;11.016;2022-08-19T03:29:11;97687.28;;;22.51;56.82
21300;BME280;10809;49.476;11.016;2022-08-19T03:31:45;97686.28;;;22.52;56.34
21300;BME280;10809;49.476;11.016;2022-08-19T03:34:24;97678.38;;;22.50;56.66
21300;BME280;10809;49.476;11.016;2022-08-19T03:37:02;97672.97;;;22.50;56.66
21300;BME280;10809;49.476;11.016;2022-08-19T03:39:35;97656.97;;;22.49;56.52
21300;BME280;10809;49.476;11.016;2022-08-19T03:42:06;97662.34;;;22.49;56.41
21300;BME280;10809;49.476;11.016;2022-08-19T03:44:36;97666.22;;;22.46;56.41
21300;BME280;10809;49.476;11.016;2022-08-19T03:47:07;97661.00;;;22.45;56.75
21300;BME280;10809;49.476;11.016;2022-08-19T03:49:38;97663.88;;;22.43;56.80
21300;BME280;10809;49.476;11.016;2022-08-19T03:52:08;97672.16;;;22.42;56.64
21300;BME280;10809;49.476;11.016;2022-08-19T03:54:39;97667.09;;;22.39;56.35
21300;BME280;10809;49.476;11.016;2022-08-19T03:57:12;97658.38;;;22.37;56.46
21300;BME280;10809;49.476;11.016;2022-08-19T03:59:42;97657.69;;;22.35;56.65
21300;BME280;10809;49.476;11.016;2022-08-19T04:02:14;97649.78;;;22.33;56.80
21300;BME280;10809;49.476;11.016;2022-08-19T04:04:44;97653.50;;;22.32;56.86
21300;BME280;10809;49.476;11.016;2022-08-19T04:07:15;97658.19;;;22.30;57.05
21300;BME280;10809;49.476;11.016;2022-08-19T04:09:51;97657.31;;;22.30;56.80
21300;BME280;10809;49.476;11.016;2022-08-19T04:12:25;97650.25;;;22.29;56.79
21300;BME280;10809;49.476;11.016;2022-08-19T04:14:55;97653.97;;;22.28;56.74
21300;BME280;10809;49.476;11.016;2022-08-19T04:17:25;97660.38;;;22.27;57.12
21300;BME280;10809;49.476;11.016;2022-08-19T04:19:56;97664.09;;;22.26;56.69
21300;BME280;10809;49.476;11.016;2022-08-19T04:22:26;97684.00;;;22.25;56.83
21300;BME280;10809;49.476;11.016;2022-08-19T04:24:56;97682.31;;;22.24;56.74
21300;BME280;10809;49.476;11.016;2022-08-19T04:27:27;97687.69;;;22.24;56.80
21300;BME280;10809;49.476;11.016;2022-08-19T04:29:58;97693.94;;;22.24;57.21
21300;BME280;10809;49.476;11.016;2022-08-19T04:32:34;97693.25;;;22.22;56.92
21300;BME280;10809;49.476;11.016;2022-08-19T04:35:05;97690.38;;;22.24;57.12
21300;BME280;10809;49.476;11.016;2022-08-19T04:37:36;97698.47;;;22.24;57.00
21300;BME280;10809;49.476;11.016;2022-08-19T04:40:06;97708.44;;;22.23;57.40
21300;BME280;10809;49.476;11.016;2022-08-19T04:42:55;97717.38;;;22.24;56.89
21300;BME280;10809;49.476;11.016;2022-08-19T04:45:26;97722.75;;;22.24;56.95
21300;BME280;10809;49.476;11.016;2022-08-19T04:47:56;97721.94;;;22.23;56.79
21300;BME280;10809;49.476;11.016;2022-08-19T04:50:27;97725.47;;;22.24;56.82
21300;BME280;10809;49.476;11.016;2022-08-19T04:52:58;97731.88;;;22.23;56.97
21300;BME280;10809;49.476;11.016;2022-08-19T04:55:31;97737.28;;;22.23;56.78
21300;BME280;10809;49.476;11.016;2022-08-19T04:58:01;97740.81;;;22.23;56.65
21300;BME280;10809;49.476;11.016;2022-08-19T05:00:32;97741.81;;;22.22;56.95
21300;BME280;10809;49.476;11.016;2022-08-19T05:03:06;97742.66;;;22.23;56.57
21300;BME280;10809;49.476;11.016;2022-08-19T05:05:41;97743.69;;;22.22;56.76
21300;BME280;10809;49.476;11.016;2022-08-19T05:08:12;97744.69;;;22.21;56.55
21300;BME280;10809;49.476;11.016;2022-08-19T05:10:43;97744.69;;;22.21;56.78
21300;BME280;10809;49.476;11.016;2022-08-19T05:13:18;97747.56;;;22.19;56.75
21300;BME280;10809;49.476;11.016;2022-08-19T05:15:57;97759.19;;;22.20;56.85
21300;BME280;10809;49.476;11.016;2022-08-19T05:18:28;97773.69;;;22.19;56.72
21300;BME280;10809;49.476;11.016;2022-08-19T05:21:21;97766.59;;;22.18;56.94
21300;BME280;10809;49.476;11.016;2022-08-19T05:24:11;97779.91;;;22.19;56.89
21300;BME280;10809;49.476;11.016;2022-08-19T05:26:43;97780.09;;;22.18;56.81
21300;BME280;10809;49.476;11.016;2022-08-19T05:29:19;97783.63;;;22.18;56.87
21300;BME280;10809;49.476;11.016;2022-08-19T05:31:51;97782.78;;;22.18;57.01
21300;BME280;10809;49.476;11.016;2022-08-19T05:34:23;97776.72;;;22.16;57.17
21300;BME280;10809;49.476;11.016;2022-08-19T05:36:58;97773.88;;;22.17;56.98
21300;BME280;10809;49.476;11.016;2022-08-19T05:39:31;97772.00;;;22.18;57.17
21300;BME280;10809;49.476;11.016;2022-08-19T05:42:06;97768.47;;;22.17;57.10
21300;BME280;10809;49.476;11.016;2022-08-19T05:44:42;97778.41;;;22.17;56.89
21300;BME280;10809;49.476;11.016;2022-08-19T05:47:18;97776.41;;;22.19;57.30
21300;BME280;10809;49.476;11.016;2022-08-19T05:49:50;97777.38;;;22.18;57.13
21300;BME280;10809;49.476;11.016;2022-08-19T05:52:20;97779.09;;;22.19;57.23
21300;BME280;10809;49.476;11.016;2022-08-19T05:54:51;97781.78;;;22.19;57.19
21300;BME280;10809;49.476;11.016;2022-08-19T05:57:22;97774.53;;;22.19;57.46
21300;BME280;10809;49.476;11.016;2022-08-19T05:59:53;97778.06;;;22.20;57.77
21300;BME280;10809;49.476;11.016;2022-08-19T06:02:28;97773.34;;;22.22;57.61
21300;BME280;10809;49.476;11.016;2022-08-19T06:05:01;97769.47;;;22.24;57.67
21300;BME280;10809;49.476;11.016;2022-08-19T06:07:32;97773.66;;;22.27;57.43
21300;BME280;10809;49.476;11.016;2022-08-19T06:10:08;97757.13;;;22.30;57.45
21300;BME280;10809;49.476;11.016;2022-08-19T06:12:42;97762.91;;;22.35;57.47
21300;BME280;10809;49.476;11.016;2022-08-19T06:15:14;97758.00;;;22.38;57.56
21300;BME280;10809;49.476;11.016;2022-08-19T06:17:44;97761.88;;;22.44;57.62
21300;BME280;10809;49.476;11.016;2022-08-19T06:20:15;97772.81;;;22.50;57.68
21300;BME280;10809;49.476;11.016;2022-08-19T06:22:57;97767.56;;;22.57;57.57
21300;BME280;10809;49.476;11.016;2022-08-19T06:25:29;97759.78;;;22.62;57.60
21300;BME280;10809;49.476;11.016;2022-08-19T06:28:00;97766.19;;;22.69;57.49
21300;BME280;10809;49.476;11.016;2022-08-19T06:30:30;97763.78;;;22.74;57.12
21300;BME280;10809;49.476;11.016;2022-08-19T06:33:00;97761.41;;;22.79;57.27
21300;BME280;10809;49.476;11.016;2022-08-19T06:35:31;97758.38;;;22.82;57.17
21300;BME280;10809;49.476;11.016;2022-08-19T06:38:01;97764.28;;;22.85;57.06
21300;BME280;10809;49.476;11.016;2022-08-19T06:40:33;97756.63;;;22.89;57.06
21300;BME280;10809;49.476;11.016;2022-08-19T06:43:03;97755.28;;;22.93;57.13
21300;BME280;10809;49.476;11.016;2022-08-19T06:45:36;97759.16;;;22.98;56.85
21300;BME280;10809;49.476;11.016;2022-08-19T06:48:08;97764.03;;;23.03;57.33
21300;BME280;10809;49.476;11.016;2022-08-19T06:50:38;97773.47;;;23.07;56.88
21300;BME280;10809;49.476;11.016;2022-08-19T06:53:09;97775.00;;;23.09;56.92
21300;BME280;10809;49.476;11.016;2022-08-19T06:55:39;97781.88;;;23.12;56.73
21300;BME280;10809;49.476;11.016;2022-08-19T06:58:11;97779.19;;;23.12;56.48
21300;BME280;10809;49.476;11.016;2022-08-19T07:00:44;97782.91;;;23.11;57.02
21300;BME280;10809;49.476;11.016;2022-08-19T07:03:17;97787.47;;;23.10;56.88
21300;BME280;10809;49.476;11.016;2022-08-19T07:05:50;97799.13;;;23.11;57.01
21300;BME280;10809;49.476;11.016;2022-08-19T07:08:21;97800.97;;;23.10;56.64
21300;BME280;10809;49.476;11.016;2022-08-19T07:10:51;97798.44;;;23.09;56.90
21300;BME280;10809;49.476;11.016;2022-08-19T07:13:21;97800.47;;;23.07;56.45
21300;BME280;10809;49.476;11.016;2022-08-19T07:15:52;97798.81;;;23.06;56.45
21300;BME280;10809;49.476;11.016;2022-08-19T07:18:22;97797.31;;;23.03;56.61
21300;BME280;10809;49.476;11.016;2022-08-19T07:21:05;97804.06;;;22.99;56.41
21300;BME280;10809;49.476;11.016;2022-08-19T07:23:35;97801.50;;;22.98;56.68
21300;BME280;10809;49.476;11.016;2022-08-19T07:26:22;97812.00;;;22.93;56.68
21300;BME280;10809;49.476;11.016;2022-08-19T07:28:54;97817.75;;;22.90;56.65
21300;BME280;10809;49.476;11.016;2022-08-19T07:31:26;97817.06;;;22.88;56.42
21300;BME280;10809;49.476;11.016;2022-08-19T07:33:57;97816.75;;;22.83;56.68
21300;BME280;10809;49.476;11.016;2022-08-19T07:36:28;97819.97;;;22.78;56.51
21300;BME280;10809;49.476;11.016;2022-08-19T07:39:06;97819.66;;;22.73;56.21
21300;BME280;10809;49.476;11.016;2022-08-19T07:41:37;97819.69;;;22.65;56.74
21300;BME280;10809;49.476;11.016;2022-08-19T07:44:08;97821.53;;;22.57;56.58
21300;BME280;10809;49.476;11.016;2022-08-19T07:46:43;97826.78;;;22.50;56.47
21300;BME280;10809;49.476;11.016;2022-08-19T07:49:14;97824.28;;;22.41;57.06
21300;BME280;10809;49.476;11.016;2022-08-19T07:51:58;97827.81;;;22.33;57.22
21300;BME280;10809;49.476;11.016;2022-08-19T07:54:32;97831.34;;;22.26;57.18
21300;BME280;10809;49.476;11.016;2022-08-19T07:57:05;97827.47;;;22.20;57.57
21300;BME280;10809;49.476;11.016;2022-08-19T07:59:35;97826.28;;;22.15;57.26
21300;BME280;10809;49.476;11.016;2022-08-19T08:02:07;97822.25;;;22.11;57.72
21300;BME280;10809;49.476;11.016;2022-08-19T08:04:38;97823.56;;;22.07;57.67
21300;BME280;10809;49.476;11.016;2022-08-19T08:07:27;97817.19;;;22.08;57.64
21300;BME280;10809;49.476;11.016;2022-08-19T08:10:19;97813.47;;;22.09;57.85
21300;BME280;10809;49.476;11.016;2022-08-19T08:12:50;97819.03;;;22.07;58.25
21300;BME280;10809;49.476;11.016;2022-08-19T08:15:21;97813.47;;;22.09;58.13
21300;BME280;10809;49.476;11.016;2022-08-19T08:17:51;97810.59;;;22.10;58.44
21300;BME280;10809;49.476;11.016;2022-08-19T08:20:22;97805.91;;;22.12;58.52
21300;BME280;10809;49.476;11.016;2022-08-19T08:22:52;97806.38;;;22.16;58.58
21300;BME280;10809;49.476;11.016;2022-08-19T08:25:41;97817.69;;;22.19;58.06
21300;BME280;10809;49.476;11.016;2022-08-19T08:28:11;97816.50;;;22.22;58.20
21300;BME280;10809;49.476;11.016;2022-08-19T08:30:42;97815.50;;;22.23;58.13
21300;BME280;10809;49.476;11.016;2022-08-19T08:33:16;97803.50;;;22.25;58.03
21300;BME280;10809;49.476;11.016;2022-08-19T08:35:47;97796.28;;;22.26;58.04
21300;BME280;10809;49.476;11.016;2022-08-19T08:38:18;97789.84;;;22.27;57.94
21300;BME280;10809;49.476;11.016;2022-08-19T08:40:52;97794.25;;;22.28;58.24
21300;BME280;10809;49.476;11.016;2022-08-19T08:43:32;97784.97;;;22.30;58.34
21300;BME280;10809;49.476;11.016;2022-08-19T08:46:10;97795.44;;;22.33;58.25
21300;BME280;10809;49.476;11.016;2022-08-19T08:52:00;97809.59;;;22.43;57.96
21300;BME280;10809;49.476;11.016;2022-08-19T08:54:41;97808.25;;;22.47;57.97
21300;BME280;10809;49.476;11.016;2022-08-19T08:57:30;97811.44;;;22.51;58.06
21300;BME280;10809;49.476;11.016;2022-08-19T09:00:08;97808.38;;;22.54;57.77
21300;BME280;10809;49.476;11.016;2022-08-19T09:02:45;97810.09;;;22.55;57.79
21300;BME280;10809;49.476;11.016;2022-08-19T09:05:16;97810.72;;;22.57;57.95
21300;BME280;10809;49.476;11.016;2022-08-19T09:08:02;97814.28;;;22.57;57.85
21300;BME280;10809;49.476;11.016;2022-08-19T09:10:39;97816.81;;;22.59;57.28
21300;BME280;10809;49.476;11.016;2022-08-19T09:16:32;97813.59;;;22.55;57.51
21300;BME280;10809;49.476;11.016;2022-08-19T09:19:04;97814.63;;;22.54;57.61
21300;BME280;10809;49.476;11.016;2022-08-19T09:21:36;97814.81;;;22.53;57.29
21300;BME280;10809;49.476;11.016;2022-08-19T09:24:08;97814.13;;;22.51;57.17
21300;BME280;10809;49.476;11.016;2022-08-19T09:26:38;97815.31;;;22.48;57.34
21300;BME280;10809;49.476;11.016;2022-08-19T09:29:09;97820.88;;;22.47;57.60
21300;BME280;10809;49.476;11.016;2022-08-19T09:31:43;97822.09;;;22.44;57.32
21300;BME280;10809;49.476;11.016;2022-08-19T09:34:16;97823.25;;;22.42;57.46
21300;BME280;10809;49.476;11.016;2022-08-19T09:36:50;97824.28;;;22.41;57.36
21300;BME280;10809;49.476;11.016;2022-08-19T09:39:23;97822.78;;;22.38;57.33
21300;BME280;10809;49.476;11.016;2022-08-19T09:41:53;97828.34;;;22.37;57.59
21300;BME280;10809;49.476;11.016;2022-08-19T09:44:30;97829.31;;;22.36;57.91
21300;BME280;10809;49.476;11.016;2022-08-19T09:47:00;97827.66;;;22.35;57.56
21300;BME280;10809;49.476;11.016;2022-08-19T09:49:31;97823.28;;;22.34;57.66
21300;BME280;10809;49.476;11.016;2022-08-19T09:52:02;97818.88;;;22.33;57.40
21300;BME280;10809;49.476;11.016;2022-08-19T09:54:33;97809.06;;;22.32;57.89
21300;BME280;10809;49.476;11.016;2022-08-19T09:57:04;97812.81;;;22.31;57.71
21300;BME280;10809;49.476;11.016;2022-08-19T09:59:38;97816.50;;;22.30;57.76
21300;BME280;10809;49.476;11.016;2022-08-19T10:02:09;97823.75;;;22.29;57.92
21300;BME280;10809;49.476;11.016;2022-08-19T10:04:40;97826.47;;;22.29;58.04
21300;BME280;10809;49.476;11.016;2022-08-19T10:07:30;97828.13;;;22.30;58.23
21300;BME280;10809;49.476;11.016;2022-08-19T10:10:02;97830.81;;;22.30;58.06
21300;BME280;10809;49.476;11.016;2022-08-19T10:12:33;97832.69;;;22.30;58.05
21300;BME280;10809;49.476;11.016;2022-08-19T10:15:05;97829.97;;;22.30;57.67
21300;BME280;10809;49.476;11.016;2022-08-19T10:17:36;97835.38;;;22.30;57.84
21300;BME280;10809;49.476;11.016;2022-08-19T10:20:07;97833.53;;;22.30;57.78
21300;BME280;10809;49.476;11.016;2022-08-19T10:22:37;97828.31;;;22.29;57.80
21300;BME280;10809;49.476;11.016;2022-08-19T10:25:08;97833.69;;;22.29;57.56
21300;BME280;10809;49.476;11.016;2022-08-19T10:27:39;97831.16;;;22.27;57.76
21300;BME280;10809;49.476;11.016;2022-08-19T10:30:11;97834.03;;;22.26;57.68
21300;BME280;10809;49.476;11.016;2022-08-19T10:32:41;97843.16;;;22.25;57.95
21300;BME280;10809;49.476;11.016;2022-08-19T10:35:12;97832.53;;;22.23;57.86
21300;BME280;10809;49.476;11.016;2022-08-19T10:37:43;97833.34;;;22.24;58.00
21300;BME280;10809;49.476;11.016;2022-08-19T10:40:13;97827.97;;;22.24;58.14
21300;BME280;10809;49.476;11.016;2022-08-19T10:42:47;97838.75;;;22.24;57.95
21300;BME280;10809;49.476;11.016;2022-08-19T10:45:18;97834.22;;;22.24;57.91
21300;BME280;10809;49.476;11.016;2022-08-19T10:47:48;97839.59;;;22.24;58.05
21300;BME280;10809;49.476;11.016;2022-08-19T10:50:19;97838.56;;;22.25;57.99
21300;BME280;10809;49.476;11.016;2022-08-19T10:53:08;97842.97;;;22.26;58.08
21300;BME280;10809;49.476;11.016;2022-08-19T10:55:38;97841.09;;;22.27;57.84
21300;BME280;10809;49.476;11.016;2022-08-19T10:58:27;97831.16;;;22.27;57.98
21300;BME280;10809;49.476;11.016;2022-08-19T11:00:58;97827.44;;;22.28;57.52
21300;BME280;10809;49.476;11.016;2022-08-19T11:03:29;97833.69;;;22.29;57.74
21300;BME280;10809;49.476;11.016;2022-08-19T11:06:06;97834.56;;;22.29;57.35
21300;BME280;10809;49.476;11.016;2022-08-19T11:08:38;97831.69;;;22.31;57.93
21300;BME280;10809;49.476;11.016;2022-08-19T11:11:11;97836.06;;;22.32;57.98
21300;BME280;10809;49.476;11.016;2022-08-19T11:13:42;97841.31;;;22.33;58.07
21300;BME280;10809;49.476;11.016;2022-08-19T11:16:17;97830.53;;;22.33;57.94
21300;BME280;10809;49.476;11.016;2022-08-19T11:18:51;97835.91;;;22.33;57.56
21300;BME280;10809;49.476;11.016;2022-08-19T11:23:56;97831.53;;;22.32;57.50
21300;BME280;10809;49.476;11.016;2022-08-19T11:26:27;97833.22;;;22.33;57.83
21300;BME280;10809;49.476;11.016;2022-08-19T11:28:59;97826.16;;;22.32;57.85
21300;BME280;10809;49.476;11.016;2022-08-19T11:31:32;97829.66;;;22.33;58.13
21300;BME280;10809;49.476;11.016;2022-08-19T11:34:06;97827.81;;;22.33;57.75
21300;BME280;10809;49.476;11.016;2022-08-19T11:36:39;97833.06;;;22.35;57.69
21300;BME280;10809;49.476;11.016;2022-08-19T11:39:13;97828.69;;;22.34;57.79
21300;BME280;10809;49.476;11.016;2022-08-19T11:41:44;97826.81;;;22.34;57.67
21300;BME280;10809;49.476;11.016;2022-08-19T11:44:15;97825.97;;;22.34;57.81
21300;BME280;10809;49.476;11.016;2022-08-19T11:46:45;97817.03;;;22.33;57.77
21300;BME280;10809;49.476;11.016;2022-08-19T11:49:20;97825.13;;;22.33;57.96
21300;BME280;10809;49.476;11.016;2022-08-19T11:51:51;97818.88;;;22.33;58.10
21300;BME280;10809;49.476;11.016;2022-08-19T11:54:23;97821.56;;;22.33;58.18
21300;BME280;10809;49.476;11.016;2022-08-19T11:56:53;97807.25;;;22.32;58.56
21300;BME280;10809;49.476;11.016;2022-08-19T11:59:24;97813.47;;;22.33;58.28
21300;BME280;10809;49.476;11.016;2022-08-19T12:01:54;97810.78;;;22.33;58.30
21300;BME280;10809;49.476;11.016;2022-08-19T12:04:28;97812.66;;;22.32;57.89
21300;BME280;10809;49.476;11.016;2022-08-19T12:06:59;97810.09;;;22.31;58.11
21300;BME280;10809;49.476;11.016;2022-08-19T12:09:29;97812.97;;;22.29;58.18
21300;BME280;10809;49.476;11.016;2022-08-19T12:12:00;97807.75;;;22.28;58.28
21300;BME280;10809;49.476;11.016;2022-08-19T12:14:31;97814.13;;;22.27;58.47
21300;BME280;10809;49.476;11.016;2022-08-19T12:17:02;97819.69;;;22.25;58.19
21300;BME280;10809;49.476;11.016;2022-08-19T12:19:36;97813.66;;;22.23;58.35
21300;BME280;10809;49.476;11.016;2022-08-19T12:22:07;97819.22;;;22.22;58.64
21300;BME280;10809;49.476;11.016;2022-08-19T12:24:37;97818.53;;;22.20;58.89
21300;BME280;10809;49.476;11.016;2022-08-19T12:27:08;97815.31;;;22.16;59.82
21300;BME280;10809;49.476;11.016;2022-08-19T12:29:39;97818.19;;;22.15;59.99
21300;BME280;10809;49.476;11.016;2022-08-19T12:32:10;97828.28;;;22.13;59.94
21300;BME280;10809;49.476;11.016;2022-08-19T12:34:40;97817.84;;;22.10;60.24
21300;BME280;10809;49.476;11.016;2022-08-19T12:37:11;97817.19;;;22.08;60.56
21300;BME280;10809;49.476;11.016;2022-08-19T12:39:43;97821.03;;;22.05;60.49
21300;BME280;10809;49.476;11.016;2022-08-19T12:42:14;97813.13;;;22.04;60.70
21300;BME280;10809;49.476;11.016;2022-08-19T12:44:44;97808.06;;;22.01;60.35
21300;BME280;10809;49.476;11.016;2022-08-19T12:47:15;97820.91;;;21.99;60.83
21300;BME280;10809;49.476;11.016;2022-08-19T12:49:45;97817.53;;;21.97;60.89
21300;BME280;10809;49.476;11.016;2022-08-19T12:52:17;97821.41;;;21.94;60.88
21300;BME280;10809;49.476;11.016;2022-08-19T12:54:53;97818.88;;;21.93;61.29
21300;BME280;10809;49.476;11.016;2022-08-19T12:57:28;97822.72;;;21.90;61.40
21300;BME280;10809;49.476;11.016;2022-08-19T13:00:10;97820.19;;;21.89;61.10
21300;BME280;10809;49.476;11.016;2022-08-19T13:02:44;97824.78;;;21.88;61.88
21300;BME280;10809;49.476;11.016;2022-08-19T13:05:18;97825.59;;;21.89;62.20
21300;BME280;10809;49.476;11.016;2022-08-19T13:07:52;97829.16;;;21.89;62.45
21300;BME280;10809;49.476;11.016;2022-08-19T13:10:31;97836.38;;;21.89;61.99
21300;BME280;10809;49.476;11.016;2022-08-19T13:13:07;97834.53;;;21.89;62.05
21300;BME280;10809;49.476;11.016;2022-08-19T13:15:41;97846.34;;;21.88;62.09
21300;BME280;10809;49.476;11.016;2022-08-19T13:18:12;97842.78;;;21.88;62.55
21300;BME280;10809;49.476;11.016;2022-08-19T13:20:42;97845.50;;;21.88;62.31
21300;BME280;10809;49.476;11.016;2022-08-19T13:23:13;97839.25;;;21.87;62.53
21300;BME280;10809;49.476;11.016;2022-08-19T13:25:43;97844.63;;;21.87;62.59
21300;BME280;10809;49.476;11.016;2022-08-19T13:28:13;97835.72;;;21.87;63.02
21300;BME280;10809;49.476;11.016;2022-08-19T13:30:47;97841.13;;;21.87;62.92